Date,TemperatureHighF,TemperatureAvgF,TemperatureLowF,DewpointHighF,DewpointAvgF,DewpointLowF,HumidityHigh,HumidityAvg,HumidityLow,PressureMaxIn,PressureMinIn,WindSpeedMaxMPH,WindSpeedAvgMPH,GustSpeedMaxMPH,PrecipitationSumIn
2013-1-1,66,56,48,55,50,44,91,81,68,30.14,29.90,4,1,5,0.00
2013-1-2,63,55,47,58,52,44,97,88,79,30.14,29.84,3,1,8,0.01
2013-1-3,47,44,36,44,42,35,95,92,87,30.23,30.08,1,0,5,0.07
2013-1-4,55,40,30,40,33,29,98,78,40,30.31,30.19,3,1,6,0.01
2013-1-5,53,39,27,38,31,26,96,76,38,30.38,30.25,4,1,6,0.00
2013-1-6,54,48,40,47,43,38,95,85,65,30.26,30.06,2,0,4,0.02
2013-1-7,57,48,36,45,38,33,97,73,43,30.37,30.12,5,1,7,0.00
2013-1-8,66,53,41,54,45,35,94,77,63,30.37,30.29,4,1,7,0.00
2013-1-9,74,59,46,61,55,44,98,87,63,30.36,30.30,4,1,6,0.00
2013-1-10,55,54,54,54,53,52,98,96,95,30.38,30.36,0,0,1,0.00
2013-1-14,65,63,62,60,60,59,93,91,84,30.12,30.12,2,1,3,0.01
2013-1-15,76,65,57,65,62,56,99,89,67,30.14,30.00,4,1,5,0.01
2013-1-16,79,69,61,66,63,58,99,83,56,30.02,29.91,5,2,9,0.01
2013-1-17,76,63,44,67,58,40,97,84,61,29.99,29.69,10,3,15,0.17
2013-1-18,55,44,35,40,33,27,92,71,36,30.48,30.00,4,1,6,0.00
2013-1-19,60,44,32,46,37,29,95,76,50,30.46,30.19,3,0,5,0.00
2013-1-20,68,50,38,47,38,29,99,70,24,30.19,29.98,6,1,7,0.00
2013-1-21,67,50,34,48,37,31,96,64,27,30.05,29.89,5,1,10,0.00
2013-1-22,53,43,30,34,27,19,87,55,29,30.22,29.96,5,1,8,0.00
2013-1-23,46,36,28,35,20,8,93,58,22,30.35,30.11,5,1,7,0.00
2013-1-24,59,44,29,44,30,10,80,58,40,30.48,30.00,6,2,12,0.00
2013-1-25,40,34,25,33,20,8,76,59,44,30.47,30.12,3,1,5,0.00
2013-1-26,56,42,33,37,31,26,82,67,46,30.33,30.09,3,1,6,0.00
2013-1-27,50,38,29,35,30,25,88,74,50,30.51,30.33,5,1,8,0.00
2013-1-28,61,46,35,54,41,30,95,83,63,30.47,30.25,3,0,3,0.00
2013-1-29,75,57,42,63,53,41,100,88,64,30.25,30.09,5,1,7,0.00
2013-1-30,71,66,62,66,63,60,98,89,80,30.08,29.57,9,5,15,0.02
2013-1-31,68,51,43,65,35,24,94,58,29,30.10,29.56,10,5,15,0.32
2013-2-1,45,41,30,30,27,13,65,57,44,30.35,30.06,4,2,8,0.00
2013-2-2,50,38,26,41,27,12,94,64,48,30.37,30.04,5,1,9,0.00
2013-2-3,59,47,38,38,34,30,85,65,36,30.04,29.85,8,2,12,0.00
2013-2-4,49,40,28,35,30,26,94,71,46,30.12,29.99,3,1,5,0.00
2013-2-7,60,55,54,55,53,50,97,92,70,30.10,29.68,6,1,10,0.90
2013-2-8,56,52,49,55,51,47,99,96,92,29.71,29.62,5,3,10,0.12
2013-2-9,62,47,34,40,32,25,93,61,28,30.33,30.03,4,1,6,0.00
2013-2-10,49,34,30,42,32,29,96,93,77,30.41,30.31,1,0,1,0.00
2013-2-11,62,60,58,61,59,57,96,95,93,30.05,29.97,4,2,6,0.62
2013-2-12,63,57,49,58,54,48,97,90,62,30.08,29.88,4,1,8,0.74
2013-2-13,67,54,48,61,51,46,98,89,64,29.91,29.63,7,2,13,0.21
2013-2-14,54,48,40,49,40,37,98,77,54,30.05,29.79,3,1,4,0.00
2013-2-15,59,45,32,43,38,31,98,79,45,30.07,29.93,5,1,7,0.00
2013-2-16,54,40,32,43,37,31,98,89,64,29.94,29.76,7,2,13,0.24
2013-2-17,42,33,26,31,24,18,94,72,41,30.26,29.93,8,3,20,0.05
2013-2-18,50,37,23,33,26,21,95,70,36,30.41,30.25,5,1,7,0.00
2013-2-19,63,49,33,55,45,31,97,87,60,30.25,29.92,5,2,17,0.09
2013-2-20,56,46,34,47,36,23,96,69,28,30.11,29.97,5,1,7,0.00
2013-2-21,59,45,35,41,33,23,95,67,34,30.18,30.06,5,1,9,0.00
2013-2-22,51,47,42,49,43,30,97,86,58,30.23,30.02,5,2,10,0.16
2013-2-23,47,44,43,46,43,42,97,97,97,30.02,29.91,2,0,3,0.20
2013-2-27,53,51,49,43,43,42,76,74,69,29.77,29.76,4,2,8,0.00
2013-2-28,59,51,44,42,37,32,85,61,38,29.82,29.71,8,4,18,0.00
2013-3-3,40,37,35,27,27,27,73,66,60,29.95,29.94,1,0,3,0.00
2013-3-4,54,41,30,30,24,19,82,54,27,30.11,29.94,6,2,9,0.00
2013-3-5,63,52,36,55,42,31,94,71,48,30.09,29.61,6,3,10,0.04
2013-3-6,62,49,42,54,32,25,80,52,36,30.01,29.58,10,6,15,0.00
2013-3-7,56,42,34,35,31,29,84,64,41,30.16,30.01,5,2,8,0.00
2013-3-8,59,46,35,33,30,27,76,56,31,30.24,30.11,6,2,10,0.00
2013-3-9,65,48,32,41,35,28,90,63,35,30.28,30.19,5,1,7,0.00
2013-3-10,62,48,35,44,36,29,97,68,29,30.28,30.20,5,1,8,0.00
2013-3-11,70,57,42,58,50,39,98,80,54,30.21,29.90,6,2,11,0.00
2013-3-12,71,64,55,63,59,49,97,87,73,29.91,29.75,6,2,8,0.48
2013-3-13,65,55,43,49,37,27,83,55,24,30.07,29.88,7,2,12,0.00
2013-3-14,46,43,39,33,31,28,77,63,49,30.15,30.13,0,0,0,0.00
2013-3-15,60,47,31,45,34,23,94,65,31,30.19,29.97,6,2,10,0.00
2013-3-16,80,66,55,52,46,42,69,51,27,29.97,29.75,8,4,18,0.00
2013-3-17,79,66,55,58,51,46,75,60,38,30.00,29.87,5,2,9,0.00
2013-3-18,61,55,50,54,51,47,96,86,67,30.08,29.82,5,2,9,0.01
2013-3-19,72,58,48,55,50,43,98,79,40,29.96,29.73,5,2,10,0.50
2013-3-20,61,50,40,45,32,18,89,55,19,30.07,29.78,5,1,9,0.00
2013-3-21,56,45,37,37,25,16,93,51,23,29.92,29.70,7,3,14,0.00
2013-3-22,51,42,29,37,25,16,75,52,29,30.07,29.91,6,1,10,0.00
2013-3-23,50,45,38,46,41,36,95,88,71,30.04,29.87,2,0,4,0.29
2013-3-24,60,50,44,58,48,43,98,94,90,29.88,29.40,9,2,13,1.35
2013-3-25,54,48,42,43,34,26,95,64,37,29.87,29.52,9,5,18,0.01
2013-3-26,48,42,38,31,29,25,72,60,46,30.10,29.87,4,2,8,0.00
2013-3-27,58,44,30,33,30,25,91,60,31,30.20,30.10,6,2,12,0.00
2013-3-28,59,44,30,33,29,25,91,60,28,30.24,30.13,6,2,11,0.00
2013-3-29,58,47,32,40,33,28,91,63,37,30.31,30.19,6,2,9,0.00
2013-3-30,62,54,47,50,45,39,93,73,52,30.21,30.07,6,2,11,0.00
2013-3-31,75,63,49,59,55,47,94,77,54,30.08,29.84,7,2,10,0.44
2013-4-1,60,59,58,58,58,57,97,95,91,29.89,29.82,5,1,7,0.34
2013-4-4,59,54,49,58,53,47,97,96,95,29.82,29.77,5,2,6,0.97
2013-4-5,60,49,43,50,45,41,97,88,68,29.99,29.80,5,2,8,0.00
2013-4-6,67,52,40,51,44,39,98,76,42,30.23,29.99,7,2,10,0.00
2013-4-7,69,57,42,58,51,40,96,81,54,30.23,30.11,5,2,9,0.00
2013-4-8,76,64,51,61,57,50,99,79,57,30.17,30.08,6,2,9,0.00
2013-4-9,79,68,56,66,61,55,98,80,50,30.19,30.09,5,2,10,0.00
2013-4-10,79,69,59,66,62,58,98,80,56,30.13,30.00,7,2,9,0.00
2013-4-11,79,72,62,70,67,60,94,86,73,30.00,29.83,7,4,10,0.00
2013-4-12,74,69,66,72,68,65,98,94,89,29.84,29.68,5,2,9,1.25
2013-4-13,75,64,54,68,54,47,96,74,37,29.99,29.76,5,1,10,0.00
2013-4-14,72,61,49,62,56,48,99,84,59,30.07,29.96,4,1,7,0.01
2013-4-15,72,66,61,63,62,58,96,86,72,30.13,29.85,7,2,10,0.54
2013-4-16,76,66,57,65,61,56,98,84,65,30.22,30.13,5,1,7,0.00
2013-4-17,78,68,57,66,62,56,98,83,58,30.20,30.10,5,1,8,0.00
2013-4-18,70,66,62,68,64,61,95,94,92,30.13,30.01,4,1,8,0.00
2013-4-19,77,72,67,72,69,66,97,90,81,30.01,29.83,7,4,12,0.69
2013-4-20,67,57,47,67,51,43,98,82,55,30.22,29.86,5,1,9,0.15
2013-4-21,66,55,42,50,45,40,96,72,49,30.35,30.21,8,2,16,0.01
2013-4-22,70,56,45,53,46,35,84,69,53,30.33,30.11,3,2,7,0.00
2013-4-23,69,57,51,56,51,48,94,81,62,30.18,30.10,4,1,7,0.00
2013-4-24,73,65,50,62,58,49,96,78,65,30.16,30.02,6,2,9,0.00
2013-4-25,78,66,59,65,62,57,95,87,63,30.22,30.04,4,1,6,0.30
2013-4-26,71,60,50,57,51,42,97,74,38,30.36,30.20,5,1,10,0.00
2013-4-27,74,62,52,58,51,42,96,72,36,30.32,30.21,4,1,9,0.00
2013-4-28,71,66,61,63,60,55,95,82,70,30.20,30.03,6,3,12,0.00
2013-4-29,70,65,62,66,63,61,98,92,77,30.05,29.93,4,1,8,1.80
2013-4-30,72,66,62,67,63,60,98,91,69,30.07,29.93,4,1,7,0.13
2013-5-1,75,65,58,63,60,56,96,84,62,30.15,30.05,4,1,8,0.04
2013-5-6,74,67,58,63,57,52,88,72,47,29.87,29.79,7,3,10,0.14
2013-5-7,69,60,53,59,54,50,94,81,56,29.94,29.85,4,1,7,0.04
2013-5-8,75,65,54,63,58,52,96,78,58,30.00,29.91,5,1,8,0.03
2013-5-9,82,70,61,66,62,57,90,76,49,30.05,29.96,4,1,10,0.00
2013-5-10,84,72,62,68,63,58,90,73,51,30.06,29.97,5,2,12,0.00
2013-5-11,83,75,70,72,67,61,90,75,50,29.99,29.82,4,2,7,0.00
2013-5-12,83,74,63,67,60,48,90,64,35,29.94,29.79,5,2,9,0.00
2013-5-13,73,63,52,54,44,38,80,52,29,30.10,29.94,4,1,11,0.00
2013-5-14,70,61,48,53,45,38,93,59,36,30.23,30.10,5,2,9,0.00
2013-5-15,86,71,59,65,58,52,86,65,43,30.12,29.94,5,2,8,0.00
2013-5-16,76,68,67,68,59,58,75,73,71,29.98,29.94,2,1,4,0.00
2013-5-17,88,80,70,68,65,60,79,62,46,30.08,30.01,5,2,8,0.00
2013-5-18,82,73,65,71,67,62,95,81,55,30.13,30.06,5,2,10,0.00
2013-5-19,79,73,70,71,68,65,96,85,64,30.11,30.04,6,2,9,0.04
2013-5-20,73,72,70,71,69,67,95,91,86,30.10,30.01,4,1,7,1.12
2013-5-21,72,71,71,70,69,69,93,93,92,29.99,29.97,2,1,4,0.07
2013-5-22,81,74,66,72,70,64,99,86,72,30.01,29.90,6,2,8,0.00
2013-5-23,81,73,67,74,69,66,98,89,69,29.94,29.81,6,1,10,1.75
2013-5-24,81,71,59,68,60,44,98,71,36,30.14,29.78,6,2,13,0.00
2013-5-25,78,63,49,56,47,41,88,60,27,30.26,30.12,4,1,7,0.00
2013-5-26,76,66,57,60,55,48,91,69,39,30.23,30.13,4,1,7,0.00
2013-5-27,77,69,58,65,61,57,98,78,60,30.23,30.15,4,2,9,0.00
2013-5-28,81,73,63,69,65,61,98,79,61,30.24,30.16,6,2,9,0.00
2013-5-29,80,73,64,69,66,63,97,79,60,30.24,30.13,4,2,8,0.00
2013-5-30,83,75,63,72,68,62,98,80,64,30.24,30.15,4,1,6,0.00
2013-5-31,82,75,68,73,70,66,98,86,70,30.20,30.16,4,1,8,0.00
2013-6-2,76,76,76,73,73,73,89,89,89,29.94,29.93,3,3,6,0.00
2013-6-3,78,74,69,76,72,66,97,93,82,29.93,29.82,6,1,10,1.15
2013-6-4,82,75,69,74,71,68,99,88,66,30.02,29.88,4,1,9,0.00
2013-6-5,81,76,74,74,72,71,94,88,78,30.04,29.95,6,3,13,0.00
2013-6-6,79,75,72,75,73,70,97,92,83,29.97,29.74,4,2,9,1.92
2013-6-7,84,77,72,74,73,71,98,88,68,29.83,29.52,8,4,18,0.66
2013-6-8,89,80,75,76,74,71,94,82,58,30.06,29.82,4,2,8,0.00
2013-6-9,85,79,74,78,74,72,97,86,75,30.11,30.04,4,2,9,0.00
2013-6-10,86,79,70,77,74,68,94,86,70,30.09,29.92,7,2,9,0.13
2013-6-11,90,77,69,76,72,68,97,85,60,29.99,29.86,4,2,8,0.04
2013-6-12,89,80,73,80,75,71,96,85,74,29.94,29.86,1,0,2,0.00
2013-6-13,97,87,78,79,76,73,93,72,50,29.87,29.64,5,2,9,0.00
2013-6-14,86,79,71,75,64,58,89,62,42,29.97,29.66,4,2,12,0.00
2013-6-15,71,68,65,62,62,61,87,81,74,30.01,29.97,0,0,0,0.00
2013-6-16,77,75,73,66,66,65,77,73,70,30.06,30.03,2,1,5,0.00
2013-6-17,84,78,71,75,71,65,92,80,64,30.06,29.93,5,2,8,0.02
2013-6-18,90,83,74,77,73,68,86,73,61,29.89,29.78,5,2,8,0.15
2013-6-19,80,77,72,75,72,69,94,86,74,30.03,29.83,3,1,7,0.18
2013-6-20,83,75,67,70,67,62,95,79,57,30.14,30.02,5,1,9,0.17
2013-6-21,82,73,64,74,67,59,95,82,69,30.16,30.08,2,0,5,0.00
2013-6-22,86,75,70,75,71,69,97,90,65,30.12,30.05,3,1,5,0.02
2013-6-23,83,77,71,77,73,69,98,88,75,30.17,30.11,5,1,7,0.15
2013-6-24,84,80,77,77,75,73,93,86,73,30.19,30.10,4,2,8,0.56
2013-6-25,87,80,74,78,75,73,96,84,66,30.13,30.01,4,2,8,0.00
2013-6-26,89,79,74,77,73,71,94,83,63,30.04,29.91,4,1,8,0.00
2013-6-27,90,80,73,80,74,67,96,83,65,29.97,29.74,5,2,13,0.03
2013-6-28,92,83,77,80,76,73,90,81,61,29.79,29.60,5,2,8,0.00
2013-6-29,86,78,73,77,74,70,97,86,68,29.74,29.63,6,2,10,0.41
2013-6-30,82,77,72,78,74,71,96,91,81,29.83,29.70,5,2,8,1.37
2013-7-1,81,76,72,77,74,70,98,92,80,30.02,29.87,7,3,12,6.62
2013-7-2,79,76,74,76,74,73,97,93,90,30.07,30.00,4,2,7,0.19
2013-7-3,79,79,79,76,76,76,92,91,90,30.21,30.18,3,1,3,0.05
2013-7-4,85,81,78,76,75,74,91,83,73,30.22,30.15,5,3,10,0.00
2013-7-5,85,81,78,78,76,74,90,83,75,30.23,30.15,5,2,10,0.00
2013-7-6,85,79,72,76,73,71,97,82,70,30.21,30.11,5,2,8,0.00
2013-7-7,84,78,74,72,72,71,90,80,68,30.13,30.07,3,1,4,0.00
2013-7-8,86,78,71,75,72,70,96,82,61,30.16,30.08,4,1,4,0.00
2013-7-9,87,80,73,76,73,70,94,80,64,30.16,30.06,4,2,9,0.00
2013-7-10,87,80,74,76,74,72,94,81,65,30.10,29.94,6,2,9,0.00
2013-7-11,77,76,76,74,73,73,90,90,89,29.98,29.95,1,0,2,0.00
2013-7-12,78,75,73,74,73,71,97,92,86,29.94,29.85,3,0,4,1.07
2013-7-13,85,78,73,77,74,71,95,88,73,30.07,29.91,6,1,9,0.18
2013-7-14,85,81,74,78,75,71,93,82,75,30.20,30.07,7,4,11,0.06
2013-7-15,86,81,77,78,76,75,93,84,73,30.23,30.16,5,2,13,0.00
2013-7-16,90,81,74,76,74,71,97,80,59,30.24,30.15,4,1,7,0.00
2013-7-17,92,78,72,80,74,69,97,87,63,30.17,30.06,4,1,9,1.40
2013-7-18,73,73,72,72,72,72,98,97,97,30.10,30.06,1,0,2,0.00
2013-7-22,90,81,74,76,74,72,94,81,62,29.96,29.84,4,2,10,0.00
2013-7-23,89,81,75,76,73,72,91,79,62,29.88,29.73,3,2,8,0.00
2013-7-24,87,80,75,78,75,73,94,84,69,29.78,29.72,3,1,5,0.00
2013-7-25,88,80,71,76,73,70,96,81,61,29.96,29.74,3,1,4,0.00
2013-7-26,85,78,71,76,72,68,92,82,72,30.04,29.95,4,1,7,0.00
2013-7-27,84,77,71,74,72,69,96,85,70,30.01,29.89,4,1,10,0.00
2013-7-28,87,79,74,78,74,72,95,86,69,29.97,29.88,4,1,6,0.00
2013-7-29,73,73,73,72,72,72,97,97,97,30.11,30.09,0,0,0,2.74
2013-7-30,85,78,73,78,74,72,98,88,72,30.15,30.07,4,1,6,0.00
2013-7-31,85,78,74,78,75,73,97,90,76,30.10,29.98,3,1,5,0.13
2013-8-1,84,79,74,76,74,73,97,87,74,29.98,29.88,3,1,5,1.30
2013-8-2,86,79,74,79,75,73,97,90,70,30.01,29.90,4,1,6,1.04
2013-8-3,86,80,75,78,76,74,98,87,71,30.01,29.89,4,1,7,0.05
2013-8-4,92,81,73,76,74,70,96,79,58,29.97,29.84,4,1,6,0.00
2013-8-5,84,77,70,72,67,63,94,72,51,30.03,29.94,5,1,9,0.00
2013-8-6,83,78,70,70,68,63,90,72,60,30.02,29.94,3,1,5,0.00
2013-8-7,86,77,69,74,71,68,95,84,60,30.05,29.98,4,1,7,0.00
2013-8-8,87,78,72,78,74,70,97,88,72,30.04,29.97,4,1,5,1.02
2013-8-11,95,89,81,80,77,75,85,70,54,30.09,30.00,3,2,5,0.00
2013-8-12,96,85,78,80,77,75,91,78,54,30.04,29.91,3,2,7,0.00
2013-8-13,94,85,78,79,77,74,90,77,54,29.94,29.78,4,2,9,0.00
2013-8-14,83,77,66,78,73,64,95,89,74,29.98,29.79,5,1,13,0.02
2013-8-15,66,65,63,64,63,62,95,93,90,30.00,29.98,1,0,4,0.08
2013-8-16,71,70,70,70,69,68,96,94,94,30.06,30.05,1,0,2,0.61
2013-8-17,80,73,69,74,70,67,96,91,80,30.12,30.00,3,1,5,0.00
2013-8-18,87,77,70,77,73,69,97,87,67,30.16,30.07,3,1,6,0.00
2013-8-19,86,78,74,78,75,73,98,91,72,30.12,30.02,3,0,7,0.06
2013-8-20,84,78,74,78,76,73,98,93,80,30.13,30.03,2,0,4,0.13
2013-8-21,88,80,72,79,75,71,98,87,67,30.18,30.06,4,1,10,0.09
2013-8-22,88,79,73,78,74,72,97,88,64,30.11,29.99,4,1,7,0.02
2013-8-23,91,80,73,78,74,72,97,84,56,30.00,29.90,4,1,8,0.00
2013-8-24,84,76,71,74,69,66,96,79,58,30.20,29.98,2,0,6,0.00
2013-8-25,79,70,64,67,64,62,93,83,64,30.28,30.19,2,0,4,0.00
2013-8-27,74,74,73,65,65,65,76,75,74,30.00,29.99,0,0,1,0.00
2013-8-28,91,79,70,76,70,65,92,75,52,30.00,29.89,3,1,6,0.00
2013-8-29,94,82,74,78,73,70,89,77,56,29.91,29.81,4,1,8,0.00
2013-8-30,84,78,71,74,73,69,94,84,69,29.99,29.91,5,1,8,0.00
2013-8-31,87,79,71,76,74,70,98,86,67,29.94,29.85,4,1,9,0.00
2013-9-1,90,82,76,80,76,74,97,84,59,29.93,29.80,5,2,8,0.00
2013-9-2,93,83,78,79,76,73,93,80,55,29.89,29.77,4,1,7,0.00
2013-9-3,92,79,71,76,73,69,95,82,58,29.91,29.77,8,1,16,0.68
2013-9-4,89,80,71,78,75,70,97,85,66,30.03,29.90,4,1,8,0.00
2013-9-5,91,81,74,78,75,72,96,83,55,30.04,29.96,3,0,4,0.00
2013-9-6,89,78,68,73,69,65,94,77,47,30.07,29.98,4,1,6,0.00
2013-9-7,84,75,67,71,68,65,93,78,57,30.06,29.94,3,1,6,0.00
2013-9-8,88,76,65,74,69,64,96,80,55,29.96,29.85,4,1,7,0.00
2013-9-9,86,75,69,73,70,67,95,84,62,30.06,29.94,4,1,4,0.00
2013-9-11,87,81,72,73,71,69,92,73,55,30.15,30.05,5,2,6,0.00
2013-9-12,88,77,68,73,70,67,97,80,57,30.06,29.83,3,1,5,0.00
2013-9-13,90,79,72,76,72,67,92,79,53,29.83,29.70,3,1,5,0.00
2013-9-14,84,75,68,69,65,61,86,72,57,30.04,29.77,4,1,7,0.00
2013-9-15,82,75,67,73,69,64,92,83,72,30.14,30.04,5,2,9,0.00
2013-9-16,88,79,73,76,73,70,95,81,64,30.09,29.98,3,1,5,0.00
2013-9-17,81,73,67,71,63,59,89,71,50,30.20,30.05,3,1,6,0.00
2013-9-18,79,67,58,62,57,53,85,71,53,30.20,30.10,3,1,4,0.00
2013-9-22,78,72,67,72,68,64,94,86,75,29.83,29.63,5,2,8,0.28
2013-9-23,80,68,59,64,60,57,95,76,49,30.02,29.83,3,0,6,0.00
2013-9-24,77,65,57,59,56,53,91,74,44,30.05,29.94,4,1,9,0.00
2013-9-26,79,69,62,66,61,57,96,79,48,29.93,29.79,3,0,4,0.31
2013-9-27,80,68,59,64,59,56,93,74,51,30.09,29.92,2,1,6,0.00
2013-9-28,79,68,61,63,59,55,87,75,57,30.12,30.05,2,1,5,0.00
2013-9-29,78,66,58,60,57,55,94,75,48,30.08,29.96,3,1,9,0.00
2013-9-30,77,65,55,63,58,53,95,81,54,30.03,29.94,2,0,4,0.00
2013-10-1,82,67,54,62,58,53,97,77,46,30.09,30.00,3,1,4,0.00
2013-10-2,84,70,57,66,61,56,97,77,48,30.10,30.02,4,1,5,0.00
2013-10-3,81,68,60,69,63,58,97,85,57,30.12,30.06,4,1,5,0.00
2013-10-4,83,78,69,72,70,67,94,77,60,30.11,30.03,4,1,8,0.00
2013-10-5,83,68,64,71,66,63,99,94,66,30.09,30.04,1,0,4,0.00
2013-10-6,81,78,76,74,73,71,89,84,79,29.97,29.91,4,3,9,0.01
2013-10-8,58,57,57,57,56,56,97,96,96,30.05,30.01,2,1,3,0.35
2013-10-9,74,63,57,64,58,55,96,85,70,30.03,29.97,4,2,9,0.01
2013-10-10,63,61,60,60,56,56,90,85,83,29.98,29.92,4,3,7,0.00
2013-10-11,63,63,62,60,60,60,92,91,90,29.92,29.87,1,0,1,0.00
2013-10-13,68,68,67,65,65,65,91,90,89,30.07,30.05,1,1,4,0.00
2013-10-14,78,70,67,67,65,62,91,85,70,30.09,30.01,2,1,8,0.00
2013-10-15,72,66,61,64,61,58,91,84,74,30.08,29.97,3,1,5,0.00
2013-10-16,73,67,61,65,63,60,95,88,74,30.00,29.92,2,0,3,0.00
2013-10-17,79,68,58,68,63,57,98,84,64,29.95,29.85,4,1,8,0.00
2013-10-18,76,70,65,72,67,64,98,92,84,29.95,29.85,3,0,5,0.00
2013-10-19,79,70,65,73,68,64,98,93,77,29.92,29.82,3,0,6,0.81
2013-10-20,70,63,55,64,57,52,95,80,61,30.05,29.86,3,1,6,0.00
2013-10-21,70,61,54,60,55,51,93,83,66,30.09,29.97,1,0,6,0.00
2013-10-22,64,60,58,59,57,56,95,92,81,29.98,29.91,0,0,1,0.00
2013-10-25,62,54,41,42,39,35,91,59,39,30.32,30.21,4,1,6,0.00
2013-10-26,65,48,35,47,40,33,93,74,44,30.31,30.10,3,1,6,0.00
2013-10-27,69,54,42,53,46,39,95,77,48,30.11,30.03,3,1,5,0.00
2013-10-28,74,60,50,60,55,49,97,84,57,30.23,30.09,2,0,5,0.00
2013-10-29,75,61,50,62,56,49,99,85,56,30.29,30.19,3,0,5,0.00
2013-10-30,77,62,52,63,57,51,100,85,52,30.28,30.15,4,1,6,0.00
2013-10-31,78,62,54,67,58,53,100,89,65,30.18,30.06,4,1,6,0.00
2013-11-1,80,75,71,70,69,68,96,81,67,29.78,29.71,4,2,8,0.08
2013-11-2,71,64,53,70,61,50,98,88,62,29.90,29.69,3,1,7,1.05
2013-11-3,66,54,46,50,45,42,94,73,42,30.28,29.90,4,1,6,0.00
2013-11-4,65,52,42,46,41,37,85,67,45,30.43,30.27,3,1,6,0.00
2013-11-5,66,53,42,60,49,37,95,87,76,30.41,30.30,3,0,4,0.00
2013-11-6,76,65,56,65,59,52,97,83,67,30.30,30.06,5,1,8,0.07
2013-11-7,75,66,57,66,63,44,99,90,61,30.06,29.88,3,1,6,0.54
2013-11-8,61,51,39,44,37,33,93,62,36,30.27,30.00,3,1,7,0.00
2013-11-9,65,50,36,51,43,34,94,79,50,30.33,30.17,3,0,4,0.00
2013-11-10,69,58,49,52,49,44,97,75,43,30.21,30.08,3,1,5,0.00
2013-11-11,64,52,44,46,41,35,95,68,40,30.28,30.13,3,1,6,0.00
2013-11-12,70,53,38,50,42,29,97,68,40,30.33,29.97,4,1,10,0.00
2013-11-13,49,38,28,32,27,22,90,66,36,30.48,30.31,5,1,8,0.00
2013-11-14,61,41,27,41,31,24,93,72,31,30.49,30.31,3,0,5,0.01
2013-11-15,62,52,38,60,49,36,95,90,74,30.31,30.14,4,0,6,0.00
2013-11-16,75,64,56,65,60,55,100,88,61,30.18,30.11,3,1,7,0.00
2013-11-17,74,63,53,69,62,52,99,95,83,30.16,29.95,3,1,5,0.03
2013-11-18,82,76,62,71,66,47,91,73,58,29.87,29.75,4,2,6,0.00
2013-11-19,63,54,45,46,36,33,77,52,34,30.19,29.87,2,1,6,0.00
2013-11-20,56,47,42,45,39,35,80,72,60,30.33,30.19,3,1,5,0.00
2013-11-21,71,58,48,61,53,44,96,82,67,30.37,30.29,3,1,7,0.00
2013-11-22,74,64,59,64,61,58,98,92,69,30.31,30.09,3,1,7,0.02
2013-11-23,66,61,54,65,59,43,99,94,65,30.10,29.98,3,1,6,0.10
2013-11-24,54,41,28,42,21,12,64,46,28,30.50,30.08,5,1,11,0.00
2013-11-25,49,37,27,34,20,10,80,52,33,30.55,30.26,4,1,5,0.00
2013-11-26,71,58,39,70,56,34,100,95,80,30.26,29.59,8,3,15,1.11
2013-11-27,68,54,35,68,51,28,98,92,75,30.17,29.43,6,3,11,0.06
2013-11-28,48,36,29,31,26,20,94,70,40,30.47,30.18,3,1,7,0.00
2013-11-29,58,41,29,35,31,28,96,72,38,30.52,30.44,2,0,4,0.00
2013-11-30,57,45,33,44,36,28,84,72,59,30.52,30.28,3,1,7,0.00
2013-12-1,60,51,45,52,46,41,96,85,74,30.28,29.98,2,0,4,0.00
2013-12-2,63,52,44,51,48,42,97,88,60,29.98,29.78,3,0,6,0.00
2013-12-3,63,52,41,56,48,40,99,88,63,29.98,29.85,3,0,5,0.03
2013-12-4,73,61,55,65,59,54,100,93,74,30.08,29.94,3,0,6,0.11
2013-12-5,76,65,53,68,62,52,100,90,71,30.14,30.04,4,1,7,0.02
2013-12-6,80,71,65,69,67,64,98,86,62,30.13,30.02,7,3,13,0.00
2013-12-7,74,59,44,68,57,43,98,92,83,30.34,30.04,4,1,6,0.06
2013-12-8,44,43,41,43,42,40,100,96,92,30.34,30.23,2,0,5,0.02
2013-12-9,42,42,41,41,41,40,98,97,97,30.23,30.19,1,0,2,0.00
2013-12-10,50,46,43,45,43,42,96,91,83,30.29,30.18,1,0,2,0.05
2013-12-11,43,39,36,42,37,33,96,90,86,30.32,30.29,1,0,1,0.00
2013-12-12,53,41,30,37,30,21,97,70,30,30.37,30.23,5,1,8,0.00
2013-12-13,53,40,27,39,30,21,96,73,30,30.40,30.25,4,1,7,0.00
2013-12-14,70,59,43,68,55,39,99,87,73,30.25,29.74,8,2,16,0.29
2013-12-15,66,55,42,65,51,41,97,87,70,30.08,29.71,6,2,9,0.03
2013-12-16,60,45,32,44,38,31,98,81,42,30.19,30.08,3,1,7,0.01
2013-12-17,67,52,40,44,39,35,90,65,35,30.17,30.00,5,1,9,0.00
2013-12-20,64,64,63,57,57,56,80,78,76,30.16,30.16,0,0,1,0.00
2013-12-21,76,64,52,67,61,50,100,90,73,30.15,30.06,5,2,7,0.00
2013-12-22,81,72,63,70,67,62,100,86,67,30.10,30.03,6,3,11,0.00
2013-12-23,77,69,60,71,67,59,99,94,80,30.09,29.99,6,3,14,0.25
2013-12-24,60,49,38,60,44,31,99,84,59,30.37,30.02,5,1,9,0.09
2013-12-25,48,38,28,31,27,21,76,65,48,30.48,30.32,3,1,7,0.00
2013-12-26,47,41,35,42,37,29,94,85,73,30.32,30.21,3,1,7,0.00
2013-12-27,56,45,36,39,35,32,93,72,42,30.39,30.29,2,0,5,0.00
2013-12-28,62,48,30,54,39,29,96,75,36,30.37,30.05,3,0,5,0.02
2013-12-29,72,64,50,68,60,48,100,90,69,30.04,29.72,8,3,16,0.58
2013-12-30,57,49,43,50,47,43,99,93,74,30.13,29.92,3,0,5,0.00
2013-12-31,56,48,40,47,43,38,96,82,56,30.35,30.09,4,1,8,0.00
2014-1-1,51,43,37,44,40,36,96,87,60,30.37,30.12,2,0,2,0.12
2014-1-2,53,48,46,53,47,44,99,97,86,30.12,29.63,6,1,10,0.75